sensor_id;sensor_type;location;lat;lon;timestamp;temperature;humidity
43679;DHT22;29279;50.858;4.392;2022-11-15T00:00:33;13.00;99.90
43679;DHT22;29279;50.858;4.392;2022-11-15T00:02:58;13.00;99.90
43679;DHT22;29279;50.858;4.392;2022-11-15T00:05:24;12.90;99.90
43679;DHT22;29279;50.858;4.392;2022-11-15T00:07:50;13.00;99.90
43679;DHT22;29279;50.858;4.392;2022-11-15T00:10:16;13.00;99.90
43679;DHT22;29279;50.858;4.392;2022-11-15T00:12:41;13.00;99.90
43679;DHT22;29279;50.858;4.392;2022-11-15T00:15:07;13.10;99.90
43679;DHT22;29279;50.858;4.392;2022-11-15T00:17:33;13.10;99.90
43679;DHT22;29279;50.858;4.392;2022-11-15T00:19:59;13.00;99.90
43679;DHT22;29279;50.858;4.392;2022-11-15T00:22:24;12.90;99.90
43679;DHT22;29279;50.858;4.392;2022-11-15T00:24:50;13.00;99.90
43679;DHT22;29279;50.858;4.392;2022-11-15T00:27:16;13.10;99.90
43679;DHT22;29279;50.858;4.392;2022-11-15T00:29:41;13.00;99.90
43679;DHT22;29279;50.858;4.392;2022-11-15T00:32:12;13.00;99.90
43679;DHT22;29279;50.858;4.392;2022-11-15T00:34:37;12.90;99.90
43679;DHT22;29279;50.858;4.392;2022-11-15T00:37:03;12.90;99.90
43679;DHT22;29279;50.858;4.392;2022-11-15T00:39:28;12.90;99.90
43679;DHT22;29279;50.858;4.392;2022-11-15T00:41:54;12.90;99.90
43679;DHT22;29279;50.858;4.392;2022-11-15T00:44:20;13.10;99.90
43679;DHT22;29279;50.858;4.392;2022-11-15T00:46:45;13.10;99.90
43679;DHT22;29279;50.858;4.392;2022-11-15T00:49:11;13.10;99.90
43679;DHT22;29279;50.858;4.392;2022-11-15T00:51:37;13.00;99.90
43679;DHT22;29279;50.858;4.392;2022-11-15T00:54:02;13.10;99.90
43679;DHT22;29279;50.858;4.392;2022-11-15T00:56:28;13.10;99.90
43679;DHT22;29279;50.858;4.392;2022-11-15T00:58:54;13.10;99.90
43679;DHT22;29279;50.858;4.392;2022-11-15T01:01:21;13.10;99.90
43679;DHT22;29279;50.858;4.392;2022-11-15T01:03:46;13.10;99.90
43679;DHT22;29279;50.858;4.392;2022-11-15T01:06:12;13.20;99.90
43679;DHT22;29279;50.858;4.392;2022-11-15T01:08:39;13.30;99.90
43679;DHT22;29279;50.858;4.392;2022-11-15T01:11:08;13.50;99.90
43679;DHT22;29279;50.858;4.392;2022-11-15T01:13:35;13.40;99.90
43679;DHT22;29279;50.858;4.392;2022-11-15T01:16:17;13.30;99.90
43679;DHT22;29279;50.858;4.392;2022-11-15T01:18:44;13.30;99.90
43679;DHT22;29279;50.858;4.392;2022-11-15T01:21:12;13.30;99.90
43679;DHT22;29279;50.858;4.392;2022-11-15T01:23:38;13.20;99.90
43679;DHT22;29279;50.858;4.392;2022-11-15T01:26:06;13.20;99.90
43679;DHT22;29279;50.858;4.392;2022-11-15T01:28:33;13.10;99.90
43679;DHT22;29279;50.858;4.392;2022-11-15T01:31:01;13.10;99.90
43679;DHT22;29279;50.858;4.392;2022-11-15T01:33:28;13.00;99.90
43679;DHT22;29279;50.858;4.392;2022-11-15T01:35:54;13.00;99.90
43679;DHT22;29279;50.858;4.392;2022-11-15T01:38:20;13.00;99.90
43679;DHT22;29279;50.858;4.392;2022-11-15T01:40:45;13.00;99.90
43679;DHT22;29279;50.858;4.392;2022-11-15T01:43:25;13.10;99.90
43679;DHT22;29279;50.858;4.392;2022-11-15T01:45:58;13.20;99.90
43679;DHT22;29279;50.858;4.392;2022-11-15T01:48:32;13.20;99.90
43679;DHT22;29279;50.858;4.392;2022-11-15T01:51:01;13.20;99.90
43679;DHT22;29279;50.858;4.392;2022-11-15T01:53:28;13.30;99.90
43679;DHT22;29279;50.858;4.392;2022-11-15T01:55:55;13.20;99.90
43679;DHT22;29279;50.858;4.392;2022-11-15T01:58:21;13.30;99.90
43679;DHT22;29279;50.858;4.392;2022-11-15T02:00:48;13.30;99.90
43679;DHT22;29279;50.858;4.392;2022-11-15T02:03:15;13.50;99.90
43679;DHT22;29279;50.858;4.392;2022-11-15T02:05:41;13.40;99.90
43679;DHT22;29279;50.858;4.392;2022-11-15T02:08:07;13.40;99.90
43679;DHT22;29279;50.858;4.392;2022-11-15T02:10:33;13.40;99.90
43679;DHT22;29279;50.858;4.392;2022-11-15T02:13:00;13.30;99.90
43679;DHT22;29279;50.858;4.392;2022-11-15T02:15:34;13.40;99.90
43679;DHT22;29279;50.858;4.392;2022-11-15T02:18:15;13.40;99.90
43679;DHT22;29279;50.858;4.392;2022-11-15T02:27:03;13.50;99.90
43679;DHT22;29279;50.858;4.392;2022-11-15T02:32:24;13.60;99.90
43679;DHT22;29279;50.858;4.392;2022-11-15T02:40:21;13.60;99.90
43679;DHT22;29279;50.858;4.392;2022-11-15T02:42:50;13.50;99.90
43679;DHT22;29279;50.858;4.392;2022-11-15T02:45:41;13.50;99.90
43679;DHT22;29279;50.858;4.392;2022-11-15T02:48:09;13.40;99.90
43679;DHT22;29279;50.858;4.392;2022-11-15T02:50:36;13.40;99.90
43679;DHT22;29279;50.858;4.392;2022-11-15T02:53:02;13.40;99.90
43679;DHT22;29279;50.858;4.392;2022-11-15T02:55:33;13.40;99.90
43679;DHT22;29279;50.858;4.392;2022-11-15T03:09:28;13.20;99.90
43679;DHT22;29279;50.858;4.392;2022-11-15T03:12:27;13.20;99.90
43679;DHT22;29279;50.858;4.392;2022-11-15T03:15:05;13.20;99.90
43679;DHT22;29279;50.858;4.392;2022-11-15T03:18:05;13.30;99.90
43679;DHT22;29279;50.858;4.392;2022-11-15T03:20:35;13.30;99.90
43679;DHT22;29279;50.858;4.392;2022-11-15T03:23:05;13.20;99.90
43679;DHT22;29279;50.858;4.392;2022-11-15T03:25:34;13.10;99.90
43679;DHT22;29279;50.858;4.392;2022-11-15T03:28:04;13.10;99.90
43679;DHT22;29279;50.858;4.392;2022-11-15T03:30:32;13.30;99.90
43679;DHT22;29279;50.858;4.392;2022-11-15T03:33:00;13.30;99.90
43679;DHT22;29279;50.858;4.392;2022-11-15T03:35:35;13.30;99.90
43679;DHT22;29279;50.858;4.392;2022-11-15T03:38:19;13.30;99.90
43679;DHT22;29279;50.858;4.392;2022-11-15T03:41:09;13.20;99.90
43679;DHT22;29279;50.858;4.392;2022-11-15T03:43:57;13.10;99.90
43679;DHT22;29279;50.858;4.392;2022-11-15T03:46:51;13.00;99.90
43679;DHT22;29279;50.858;4.392;2022-11-15T03:49:33;13.20;99.90
43679;DHT22;29279;50.858;4.392;2022-11-15T03:52:02;13.20;99.90
43679;DHT22;29279;50.858;4.392;2022-11-15T03:54:28;13.00;99.90
43679;DHT22;29279;50.858;4.392;2022-11-15T03:56:54;12.90;99.90
43679;DHT22;29279;50.858;4.392;2022-11-15T03:59:19;13.00;99.90
43679;DHT22;29279;50.858;4.392;2022-11-15T04:01:48;12.90;99.90
43679;DHT22;29279;50.858;4.392;2022-11-15T04:04:14;12.80;99.90
43679;DHT22;29279;50.858;4.392;2022-11-15T04:06:39;12.80;99.90
43679;DHT22;29279;50.858;4.392;2022-11-15T04:09:05;12.90;99.90
43679;DHT22;29279;50.858;4.392;2022-11-15T04:11:31;12.90;99.90
43679;DHT22;29279;50.858;4.392;2022-11-15T04:13:56;12.90;99.90
43679;DHT22;29279;50.858;4.392;2022-11-15T04:16:22;12.90;99.90
43679;DHT22;29279;50.858;4.392;2022-11-15T04:18:47;12.90;99.90
43679;DHT22;29279;50.858;4.392;2022-11-15T04:21:33;12.80;99.90
43679;DHT22;29279;50.858;4.392;2022-11-15T04:24:17;12.90;99.90
43679;DHT22;29279;50.858;4.392;2022-11-15T04:26:43;12.90;99.90
43679;DHT22;29279;50.858;4.392;2022-11-15T04:29:08;12.80;99.90
43679;DHT22;29279;50.858;4.392;2022-11-15T04:31:52;12.70;99.90
43679;DHT22;29279;50.858;4.392;2022-11-15T04:34:18;12.60;99.90
43679;DHT22;29279;50.858;4.392;2022-11-15T04:36:43;12.60;99.90
43679;DHT22;29279;50.858;4.392;2022-11-15T04:39:27;12.70;99.90
43679;DHT22;29279;50.858;4.392;2022-11-15T04:41:53;12.70;99.90
43679;DHT22;29279;50.858;4.392;2022-11-15T04:44:19;12.80;99.90
43679;DHT22;29279;50.858;4.392;2022-11-15T04:46:44;12.80;99.90
43679;DHT22;29279;50.858;4.392;2022-11-15T04:49:10;12.70;99.90
43679;DHT22;29279;50.858;4.392;2022-11-15T04:51:36;12.50;99.90
43679;DHT22;29279;50.858;4.392;2022-11-15T04:54:01;12.50;99.90
43679;DHT22;29279;50.858;4.392;2022-11-15T04:56:27;12.50;99.90
43679;DHT22;29279;50.858;4.392;2022-11-15T04:58:53;12.50;99.90
43679;DHT22;29279;50.858;4.392;2022-11-15T05:01:18;12.50;99.90
43679;DHT22;29279;50.858;4.392;2022-11-15T05:03:45;12.60;99.90
43679;DHT22;29279;50.858;4.392;2022-11-15T05:06:29;12.60;99.90
43679;DHT22;29279;50.858;4.392;2022-11-15T05:08:56;12.40;99.90
43679;DHT22;29279;50.858;4.392;2022-11-15T05:11:22;12.30;99.90
43679;DHT22;29279;50.858;4.392;2022-11-15T05:13:48;12.40;99.90
43679;DHT22;29279;50.858;4.392;2022-11-15T05:16:14;12.30;99.90
43679;DHT22;29279;50.858;4.392;2022-11-15T05:18:40;12.20;99.90
43679;DHT22;29279;50.858;4.392;2022-11-15T05:21:15;12.20;99.90
43679;DHT22;29279;50.858;4.392;2022-11-15T05:23:41;12.30;99.90
43679;DHT22;29279;50.858;4.392;2022-11-15T05:26:07;12.30;99.90
43679;DHT22;29279;50.858;4.392;2022-11-15T05:28:34;12.30;99.90
43679;DHT22;29279;50.858;4.392;2022-11-15T05:31:05;12.40;99.90
43679;DHT22;29279;50.858;4.392;2022-11-15T05:33:31;12.30;99.90
43679;DHT22;29279;50.858;4.392;2022-11-15T05:38:47;12.10;99.90
43679;DHT22;29279;50.858;4.392;2022-11-15T05:41:20;11.90;99.90
43679;DHT22;29279;50.858;4.392;2022-11-15T05:43:48;11.90;99.90
43679;DHT22;29279;50.858;4.392;2022-11-15T05:46:14;11.80;99.90
43679;DHT22;29279;50.858;4.392;2022-11-15T05:48:43;11.70;99.90
43679;DHT22;29279;50.858;4.392;2022-11-15T05:51:13;11.70;99.90
43679;DHT22;29279;50.858;4.392;2022-11-15T05:53:40;11.80;99.90
43679;DHT22;29279;50.858;4.392;2022-11-15T05:56:05;11.70;99.90
43679;DHT22;29279;50.858;4.392;2022-11-15T05:58:33;11.60;99.90
43679;DHT22;29279;50.858;4.392;2022-11-15T06:00:59;11.60;99.90
43679;DHT22;29279;50.858;4.392;2022-11-15T06:03:25;11.70;99.90
43679;DHT22;29279;50.858;4.392;2022-11-15T06:05:51;11.70;99.90
43679;DHT22;29279;50.858;4.392;2022-11-15T06:08:16;11.70;99.90
43679;DHT22;29279;50.858;4.392;2022-11-15T06:10:42;11.70;99.90
43679;DHT22;29279;50.858;4.392;2022-11-15T06:13:08;11.80;99.90
43679;DHT22;29279;50.858;4.392;2022-11-15T06:15:33;11.80;99.90
43679;DHT22;29279;50.858;4.392;2022-11-15T06:18:00;11.60;99.90
43679;DHT22;29279;50.858;4.392;2022-11-15T06:20:27;11.50;99.90
43679;DHT22;29279;50.858;4.392;2022-11-15T06:22:58;11.40;99.90
43679;DHT22;29279;50.858;4.392;2022-11-15T06:25:24;11.30;99.90
43679;DHT22;29279;50.858;4.392;2022-11-15T06:27:57;11.20;99.90
43679;DHT22;29279;50.858;4.392;2022-11-15T06:30:24;11.30;99.90
43679;DHT22;29279;50.858;4.392;2022-11-15T06:32:51;11.30;99.90
43679;DHT22;29279;50.858;4.392;2022-11-15T06:35:16;11.40;99.90
43679;DHT22;29279;50.858;4.392;2022-11-15T06:37:42;11.40;99.90
43679;DHT22;29279;50.858;4.392;2022-11-15T06:40:09;11.50;99.90
43679;DHT22;29279;50.858;4.392;2022-11-15T06:42:38;11.60;99.90
43679;DHT22;29279;50.858;4.392;2022-11-15T06:45:04;11.70;99.90
43679;DHT22;29279;50.858;4.392;2022-11-15T06:47:30;11.60;99.90
43679;DHT22;29279;50.858;4.392;2022-11-15T06:49:56;11.30;99.90
43679;DHT22;29279;50.858;4.392;2022-11-15T06:52:21;11.30;99.90
43679;DHT22;29279;50.858;4.392;2022-11-15T06:54:47;11.30;99.90
43679;DHT22;29279;50.858;4.392;2022-11-15T06:57:13;11.40;99.90
43679;DHT22;29279;50.858;4.392;2022-11-15T06:59:39;11.40;99.90
43679;DHT22;29279;50.858;4.392;2022-11-15T07:02:04;11.40;99.90
43679;DHT22;29279;50.858;4.392;2022-11-15T07:04:30;11.50;99.90
43679;DHT22;29279;50.858;4.392;2022-11-15T07:06:56;11.30;99.90
43679;DHT22;29279;50.858;4.392;2022-11-15T07:09:21;11.20;99.90
43679;DHT22;29279;50.858;4.392;2022-11-15T07:11:47;11.20;99.90
43679;DHT22;29279;50.858;4.392;2022-11-15T07:14:13;11.20;99.90
43679;DHT22;29279;50.858;4.392;2022-11-15T07:16:38;11.10;99.90
43679;DHT22;29279;50.858;4.392;2022-11-15T07:19:04;11.20;99.90
43679;DHT22;29279;50.858;4.392;2022-11-15T07:21:30;11.30;99.90
43679;DHT22;29279;50.858;4.392;2022-11-15T07:23:55;11.30;99.90
43679;DHT22;29279;50.858;4.392;2022-11-15T07:26:21;11.40;99.90
43679;DHT22;29279;50.858;4.392;2022-11-15T07:28:47;11.30;99.90
43679;DHT22;29279;50.858;4.392;2022-11-15T07:31:12;11.20;99.90
43679;DHT22;29279;50.858;4.392;2022-11-15T07:33:38;11.30;99.90
43679;DHT22;29279;50.858;4.392;2022-11-15T07:36:05;11.20;99.90
43679;DHT22;29279;50.858;4.392;2022-11-15T07:38:32;11.20;99.90
43679;DHT22;29279;50.858;4.392;2022-11-15T07:41:00;11.10;99.90
43679;DHT22;29279;50.858;4.392;2022-11-15T07:43:26;11.20;99.90
43679;DHT22;29279;50.858;4.392;2022-11-15T07:45:56;11.30;99.90
43679;DHT22;29279;50.858;4.392;2022-11-15T07:48:22;11.40;99.90
43679;DHT22;29279;50.858;4.392;2022-11-15T07:50:48;11.50;99.90
43679;DHT22;29279;50.858;4.392;2022-11-15T07:53:14;11.60;99.90
43679;DHT22;29279;50.858;4.392;2022-11-15T07:55:40;11.70;99.90
43679;DHT22;29279;50.858;4.392;2022-11-15T07:58:10;11.90;99.90
43679;DHT22;29279;50.858;4.392;2022-11-15T08:00:37;12.20;99.90
43679;DHT22;29279;50.858;4.392;2022-11-15T08:03:13;12.50;99.90
43679;DHT22;29279;50.858;4.392;2022-11-15T08:05:41;12.80;99.90
43679;DHT22;29279;50.858;4.392;2022-11-15T08:08:09;12.70;99.90
43679;DHT22;29279;50.858;4.392;2022-11-15T08:10:35;13.00;99.90
43679;DHT22;29279;50.858;4.392;2022-11-15T08:13:05;13.10;99.90
43679;DHT22;29279;50.858;4.392;2022-11-15T08:15:31;13.10;99.90
43679;DHT22;29279;50.858;4.392;2022-11-15T08:17:59;13.30;99.90
43679;DHT22;29279;50.858;4.392;2022-11-15T08:20:26;13.80;99.90
43679;DHT22;29279;50.858;4.392;2022-11-15T08:22:59;14.00;99.90
43679;DHT22;29279;50.858;4.392;2022-11-15T08:25:25;13.70;99.90
43679;DHT22;29279;50.858;4.392;2022-11-15T08:27:58;13.10;99.90
43679;DHT22;29279;50.858;4.392;2022-11-15T08:30:25;12.90;99.90
43679;DHT22;29279;50.858;4.392;2022-11-15T08:32:52;12.90;99.90
43679;DHT22;29279;50.858;4.392;2022-11-15T08:35:19;13.00;99.90
43679;DHT22;29279;50.858;4.392;2022-11-15T08:37:45;13.00;99.90
43679;DHT22;29279;50.858;4.392;2022-11-15T08:40:11;12.90;99.90
43679;DHT22;29279;50.858;4.392;2022-11-15T08:42:36;13.10;99.90
43679;DHT22;29279;50.858;4.392;2022-11-15T08:45:03;13.10;99.90
43679;DHT22;29279;50.858;4.392;2022-11-15T08:47:29;13.20;99.90
43679;DHT22;29279;50.858;4.392;2022-11-15T08:49:54;13.20;99.90
43679;DHT22;29279;50.858;4.392;2022-11-15T08:52:20;13.30;99.90
43679;DHT22;29279;50.858;4.392;2022-11-15T08:54:46;13.10;99.90
43679;DHT22;29279;50.858;4.392;2022-11-15T08:57:12;13.10;99.90
43679;DHT22;29279;50.858;4.392;2022-11-15T08:59:37;13.40;99.90
43679;DHT22;29279;50.858;4.392;2022-11-15T09:02:03;13.50;99.90
43679;DHT22;29279;50.858;4.392;2022-11-15T09:04:30;13.70;99.90
43679;DHT22;29279;50.858;4.392;2022-11-15T09:06:55;14.40;99.90
43679;DHT22;29279;50.858;4.392;2022-11-15T09:09:21;15.00;99.90
43679;DHT22;29279;50.858;4.392;2022-11-15T09:11:47;15.30;99.90
43679;DHT22;29279;50.858;4.392;2022-11-15T09:14:13;15.70;99.90
43679;DHT22;29279;50.858;4.392;2022-11-15T09:16:39;15.50;99.90
43679;DHT22;29279;50.858;4.392;2022-11-15T09:19:05;14.90;99.90
43679;DHT22;29279;50.858;4.392;2022-11-15T09:21:31;14.30;99.90
43679;DHT22;29279;50.858;4.392;2022-11-15T09:23:56;14.40;99.90
43679;DHT22;29279;50.858;4.392;2022-11-15T09:26:22;14.60;99.90
43679;DHT22;29279;50.858;4.392;2022-11-15T09:28:48;15.10;99.90
43679;DHT22;29279;50.858;4.392;2022-11-15T09:31:14;15.40;99.90
43679;DHT22;29279;50.858;4.392;2022-11-15T09:33:39;16.00;99.90
43679;DHT22;29279;50.858;4.392;2022-11-15T09:36:09;16.10;99.90
43679;DHT22;29279;50.858;4.392;2022-11-15T09:38:35;16.10;99.90
43679;DHT22;29279;50.858;4.392;2022-11-15T09:46:54;16.60;99.90
43679;DHT22;29279;50.858;4.392;2022-11-15T09:49:24;16.50;99.90
43679;DHT22;29279;50.858;4.392;2022-11-15T09:51:52;17.10;99.90
43679;DHT22;29279;50.858;4.392;2022-11-15T09:54:36;17.20;99.90
43679;DHT22;29279;50.858;4.392;2022-11-15T10:02:33;16.50;99.90
43679;DHT22;29279;50.858;4.392;2022-11-15T10:05:01;17.00;99.90
43679;DHT22;29279;50.858;4.392;2022-11-15T10:07:44;17.40;99.90
43679;DHT22;29279;50.858;4.392;2022-11-15T10:12:45;17.70;99.90
43679;DHT22;29279;50.858;4.392;2022-11-15T10:15:15;17.50;99.90
43679;DHT22;29279;50.858;4.392;2022-11-15T10:20:26;16.20;99.90
43679;DHT22;29279;50.858;4.392;2022-11-15T10:22:54;16.40;99.90
43679;DHT22;29279;50.858;4.392;2022-11-15T10:25:32;16.60;99.90
43679;DHT22;29279;50.858;4.392;2022-11-15T10:30:40;16.50;99.90
43679;DHT22;29279;50.858;4.392;2022-11-15T10:33:21;16.40;99.90
43679;DHT22;29279;50.858;4.392;2022-11-15T10:35:48;16.10;99.90
43679;DHT22;29279;50.858;4.392;2022-11-15T10:38:13;16.30;99.90
43679;DHT22;29279;50.858;4.392;2022-11-15T10:40:40;16.80;99.90
43679;DHT22;29279;50.858;4.392;2022-11-15T10:45:35;16.20;99.90
43679;DHT22;29279;50.858;4.392;2022-11-15T10:50:50;14.80;99.90
43679;DHT22;29279;50.858;4.392;2022-11-15T10:53:19;14.60;99.90
43679;DHT22;29279;50.858;4.392;2022-11-15T10:55:48;14.30;99.90
43679;DHT22;29279;50.858;4.392;2022-11-15T10:58:41;14.10;99.90
43679;DHT22;29279;50.858;4.392;2022-11-15T11:01:22;14.00;99.90
43679;DHT22;29279;50.858;4.392;2022-11-15T11:04:08;14.20;99.90
43679;DHT22;29279;50.858;4.392;2022-11-15T11:09:28;14.60;99.90
43679;DHT22;29279;50.858;4.392;2022-11-15T11:11:54;14.40;99.90
43679;DHT22;29279;50.858;4.392;2022-11-15T11:14:30;14.30;99.90
43679;DHT22;29279;50.858;4.392;2022-11-15T11:25:35;14.60;99.90
43679;DHT22;29279;50.858;4.392;2022-11-15T11:39:24;15.10;99.90
43679;DHT22;29279;50.858;4.392;2022-11-15T11:44:54;14.70;99.90
43679;DHT22;29279;50.858;4.392;2022-11-15T11:47:24;14.60;99.90
43679;DHT22;29279;50.858;4.392;2022-11-15T11:50:19;14.50;99.90
43679;DHT22;29279;50.858;4.392;2022-11-15T11:55:57;14.20;99.90
43679;DHT22;29279;50.858;4.392;2022-11-15T11:58:29;14.10;99.90
43679;DHT22;29279;50.858;4.392;2022-11-15T12:03:57;14.00;99.90
43679;DHT22;29279;50.858;4.392;2022-11-15T12:09:28;14.10;99.90
43679;DHT22;29279;50.858;4.392;2022-11-15T12:14:43;14.10;99.90
43679;DHT22;29279;50.858;4.392;2022-11-15T12:17:11;14.10;99.90
43679;DHT22;29279;50.858;4.392;2022-11-15T12:19:39;14.10;99.90
43679;DHT22;29279;50.858;4.392;2022-11-15T12:27:46;14.00;99.90
43679;DHT22;29279;50.858;4.392;2022-11-15T12:30:19;13.90;99.90
43679;DHT22;29279;50.858;4.392;2022-11-15T12:33:00;13.90;99.90
43679;DHT22;29279;50.858;4.392;2022-11-15T12:35:42;14.00;99.90
43679;DHT22;29279;50.858;4.392;2022-11-15T12:38:12;14.10;99.90
43679;DHT22;29279;50.858;4.392;2022-11-15T12:43:39;14.10;99.90
43679;DHT22;29279;50.858;4.392;2022-11-15T12:46:11;14.10;99.90
43679;DHT22;29279;50.858;4.392;2022-11-15T12:51:04;14.10;99.90
43679;DHT22;29279;50.858;4.392;2022-11-15T12:53:31;14.20;99.90
43679;DHT22;29279;50.858;4.392;2022-11-15T13:06:51;14.40;99.90
43679;DHT22;29279;50.858;4.392;2022-11-15T13:14:53;14.40;99.90
43679;DHT22;29279;50.858;4.392;2022-11-15T13:19:47;14.40;99.90
43679;DHT22;29279;50.858;4.392;2022-11-15T13:22:14;14.40;99.90
43679;DHT22;29279;50.858;4.392;2022-11-15T13:24:59;14.40;99.90
43679;DHT22;29279;50.858;4.392;2022-11-15T13:27:26;14.40;99.90
43679;DHT22;29279;50.858;4.392;2022-11-15T13:29:53;14.40;99.90
43679;DHT22;29279;50.858;4.392;2022-11-15T13:32:18;14.30;99.90
43679;DHT22;29279;50.858;4.392;2022-11-15T13:34:49;14.30;99.90
43679;DHT22;29279;50.858;4.392;2022-11-15T13:39:47;14.40;99.90
43679;DHT22;29279;50.858;4.392;2022-11-15T13:42:18;14.40;99.90
43679;DHT22;29279;50.858;4.392;2022-11-15T13:45:02;14.50;99.90
43679;DHT22;29279;50.858;4.392;2022-11-15T13:47:29;14.50;99.90
43679;DHT22;29279;50.858;4.392;2022-11-15T13:49:59;14.40;99.90
43679;DHT22;29279;50.858;4.392;2022-11-15T13:52:33;14.40;99.90
43679;DHT22;29279;50.858;4.392;2022-11-15T13:55:08;14.40;99.90
43679;DHT22;29279;50.858;4.392;2022-11-15T13:57:42;14.50;99.90
43679;DHT22;29279;50.858;4.392;2022-11-15T14:00:40;14.50;99.90
43679;DHT22;29279;50.858;4.392;2022-11-15T14:03:22;14.50;99.90
43679;DHT22;29279;50.858;4.392;2022-11-15T14:08:36;14.30;99.90
43679;DHT22;29279;50.858;4.392;2022-11-15T14:11:15;14.30;99.90
43679;DHT22;29279;50.858;4.392;2022-11-15T14:13:42;14.30;99.90
43679;DHT22;29279;50.858;4.392;2022-11-15T14:16:33;14.60;99.90
43679;DHT22;29279;50.858;4.392;2022-11-15T14:18:59;14.60;99.90
43679;DHT22;29279;50.858;4.392;2022-11-15T14:21:25;14.40;99.90
43679;DHT22;29279;50.858;4.392;2022-11-15T14:23:51;14.30;99.90
43679;DHT22;29279;50.858;4.392;2022-11-15T14:26:27;14.50;99.90
43679;DHT22;29279;50.858;4.392;2022-11-15T14:28:53;14.40;99.90
43679;DHT22;29279;50.858;4.392;2022-11-15T14:31:19;14.20;99.90
43679;DHT22;29279;50.858;4.392;2022-11-15T14:33:46;14.30;99.90
43679;DHT22;29279;50.858;4.392;2022-11-15T14:36:15;14.40;99.90
43679;DHT22;29279;50.858;4.392;2022-11-15T14:38:41;14.30;99.90
43679;DHT22;29279;50.858;4.392;2022-11-15T14:41:25;14.30;99.90
43679;DHT22;29279;50.858;4.392;2022-11-15T14:43:52;14.20;99.90
43679;DHT22;29279;50.858;4.392;2022-11-15T14:46:18;14.10;99.90
43679;DHT22;29279;50.858;4.392;2022-11-15T14:48:44;14.00;99.90
43679;DHT22;29279;50.858;4.392;2022-11-15T14:51:14;13.80;99.90
43679;DHT22;29279;50.858;4.392;2022-11-15T14:53:41;13.80;99.90
43679;DHT22;29279;50.858;4.392;2022-11-15T14:56:08;13.70;99.90
43679;DHT22;29279;50.858;4.392;2022-11-15T14:58:33;13.80;99.90
43679;DHT22;29279;50.858;4.392;2022-11-15T15:00:59;13.80;99.90
43679;DHT22;29279;50.858;4.392;2022-11-15T15:03:25;13.80;99.90
43679;DHT22;29279;50.858;4.392;2022-11-15T15:05:50;13.80;99.90
43679;DHT22;29279;50.858;4.392;2022-11-15T15:08:16;13.80;99.90
43679;DHT22;29279;50.858;4.392;2022-11-15T15:10:43;13.50;99.90
43679;DHT22;29279;50.858;4.392;2022-11-15T15:13:21;13.40;99.90
43679;DHT22;29279;50.858;4.392;2022-11-15T15:15:47;13.40;99.90
43679;DHT22;29279;50.858;4.392;2022-11-15T15:18:13;13.40;99.90
43679;DHT22;29279;50.858;4.392;2022-11-15T15:20:42;13.50;99.90
43679;DHT22;29279;50.858;4.392;2022-11-15T15:23:19;13.40;99.90
43679;DHT22;29279;50.858;4.392;2022-11-15T15:25:46;13.50;99.90
43679;DHT22;29279;50.858;4.392;2022-11-15T15:28:12;13.40;99.90
43679;DHT22;29279;50.858;4.392;2022-11-15T15:30:38;13.50;99.90
43679;DHT22;29279;50.858;4.392;2022-11-15T15:33:03;13.40;99.90
43679;DHT22;29279;50.858;4.392;2022-11-15T15:35:31;13.20;99.90
43679;DHT22;29279;50.858;4.392;2022-11-15T15:37:57;13.20;99.90
43679;DHT22;29279;50.858;4.392;2022-11-15T15:40:24;13.10;99.90
43679;DHT22;29279;50.858;4.392;2022-11-15T15:42:51;13.10;99.90
43679;DHT22;29279;50.858;4.392;2022-11-15T15:45:17;13.00;99.90
43679;DHT22;29279;50.858;4.392;2022-11-15T15:47:44;13.10;99.90
43679;DHT22;29279;50.858;4.392;2022-11-15T15:52:52;13.00;99.90
43679;DHT22;29279;50.858;4.392;2022-11-15T15:55:19;13.10;99.90
43679;DHT22;29279;50.858;4.392;2022-11-15T15:57:45;13.00;99.90
43679;DHT22;29279;50.858;4.392;2022-11-15T16:00:11;13.00;99.90
43679;DHT22;29279;50.858;4.392;2022-11-15T16:02:37;13.10;99.90
43679;DHT22;29279;50.858;4.392;2022-11-15T16:05:04;13.10;99.90
43679;DHT22;29279;50.858;4.392;2022-11-15T16:07:29;13.20;99.90
43679;DHT22;29279;50.858;4.392;2022-11-15T16:09:55;13.20;99.90
43679;DHT22;29279;50.858;4.392;2022-11-15T16:12:32;13.20;99.90
43679;DHT22;29279;50.858;4.392;2022-11-15T16:14:58;13.10;99.90
43679;DHT22;29279;50.858;4.392;2022-11-15T16:17:36;13.20;99.90
43679;DHT22;29279;50.858;4.392;2022-11-15T16:20:03;13.10;99.90
43679;DHT22;29279;50.858;4.392;2022-11-15T16:22:29;13.10;99.90
43679;DHT22;29279;50.858;4.392;2022-11-15T16:24:56;13.10;99.90
43679;DHT22;29279;50.858;4.392;2022-11-15T16:27:22;13.20;99.90
43679;DHT22;29279;50.858;4.392;2022-11-15T16:29:49;13.10;99.90
43679;DHT22;29279;50.858;4.392;2022-11-15T16:32:18;13.10;99.90
43679;DHT22;29279;50.858;4.392;2022-11-15T16:34:44;13.10;99.90
43679;DHT22;29279;50.858;4.392;2022-11-15T16:37:22;13.00;99.90
43679;DHT22;29279;50.858;4.392;2022-11-15T16:39:48;13.10;99.90
43679;DHT22;29279;50.858;4.392;2022-11-15T16:42:14;13.00;99.90
43679;DHT22;29279;50.858;4.392;2022-11-15T16:44:40;13.00;99.90
43679;DHT22;29279;50.858;4.392;2022-11-15T16:47:17;13.00;99.90
43679;DHT22;29279;50.858;4.392;2022-11-15T16:49:47;13.10;99.90
43679;DHT22;29279;50.858;4.392;2022-11-15T16:52:13;13.20;99.90
43679;DHT22;29279;50.858;4.392;2022-11-15T16:54:39;13.20;99.90
43679;DHT22;29279;50.858;4.392;2022-11-15T16:57:04;13.20;99.90
43679;DHT22;29279;50.858;4.392;2022-11-15T16:59:30;13.30;99.90
43679;DHT22;29279;50.858;4.392;2022-11-15T17:01:57;13.20;99.90
43679;DHT22;29279;50.858;4.392;2022-11-15T17:04:23;13.20;99.90
43679;DHT22;29279;50.858;4.392;2022-11-15T17:06:49;13.00;99.90
43679;DHT22;29279;50.858;4.392;2022-11-15T17:09:20;13.00;99.90
43679;DHT22;29279;50.858;4.392;2022-11-15T17:11:49;13.00;99.90
43679;DHT22;29279;50.858;4.392;2022-11-15T17:14:15;13.00;99.90
43679;DHT22;29279;50.858;4.392;2022-11-15T17:16:41;13.10;99.90
43679;DHT22;29279;50.858;4.392;2022-11-15T17:19:16;13.10;99.90
43679;DHT22;29279;50.858;4.392;2022-11-15T17:21:42;13.10;99.90
43679;DHT22;29279;50.858;4.392;2022-11-15T17:24:09;13.10;99.90
43679;DHT22;29279;50.858;4.392;2022-11-15T17:26:35;13.00;99.90
43679;DHT22;29279;50.858;4.392;2022-11-15T17:29:01;12.90;99.90
43679;DHT22;29279;50.858;4.392;2022-11-15T17:31:28;12.90;99.90
43679;DHT22;29279;50.858;4.392;2022-11-15T17:33:55;13.10;99.90
43679;DHT22;29279;50.858;4.392;2022-11-15T17:36:20;13.00;99.90
43679;DHT22;29279;50.858;4.392;2022-11-15T17:38:47;13.00;99.90
43679;DHT22;29279;50.858;4.392;2022-11-15T17:41:16;13.00;99.90
43679;DHT22;29279;50.858;4.392;2022-11-15T17:43:43;13.10;99.90
43679;DHT22;29279;50.858;4.392;2022-11-15T17:46:16;13.00;99.90
43679;DHT22;29279;50.858;4.392;2022-11-15T17:48:44;13.00;99.90